createdAt,value
2022-12-18T00:02:57.684Z,-5.78
2022-12-18T00:06:00.799Z,-5.77
2022-12-18T00:09:04.714Z,-5.74
2022-12-18T00:15:18.625Z,-5.82
2022-12-18T00:18:21.507Z,-5.84
2022-12-18T00:21:24.354Z,-5.90
2022-12-18T00:24:27.513Z,-5.98
2022-12-18T00:27:30.383Z,-6.10
2022-12-18T00:30:33.295Z,-6.09
2022-12-18T00:33:37.436Z,-6.17
2022-12-18T00:36:42.113Z,-6.19
2022-12-18T00:39:44.928Z,-6.26
2022-12-18T00:42:56.873Z,-6.31
2022-12-18T00:45:59.822Z,-6.35
2022-12-18T00:49:04.073Z,-6.37
2022-12-18T00:52:06.946Z,-6.35
2022-12-18T00:55:10.374Z,-6.32
2022-12-18T00:58:15.043Z,-6.36
2022-12-18T01:01:18.047Z,-6.45
2022-12-18T01:04:21.003Z,-6.48
2022-12-18T01:07:23.851Z,-6.50
2022-12-18T01:10:27.139Z,-6.52
2022-12-18T01:13:29.908Z,-6.52
2022-12-18T01:16:32.816Z,-6.51
2022-12-18T01:19:35.749Z,-6.51
2022-12-18T01:22:38.804Z,-6.47
2022-12-18T01:25:41.725Z,-6.42
2022-12-18T01:28:45.207Z,-6.40
2022-12-18T01:31:48.081Z,-6.37
2022-12-18T01:34:51.031Z,-6.34
2022-12-18T01:37:57.087Z,-6.29
2022-12-18T01:41:01.170Z,-6.27
2022-12-18T01:44:42.739Z,-6.32
2022-12-18T01:47:57.316Z,-6.36
2022-12-18T01:51:01.326Z,-6.42
2022-12-18T01:54:04.301Z,-6.46
2022-12-18T01:57:07.236Z,-6.48
2022-12-18T02:00:22.271Z,-6.49
2022-12-18T02:03:25.220Z,-6.50
2022-12-18T02:06:41.172Z,-6.49
2022-12-18T02:09:59.572Z,-6.46
2022-12-18T02:13:43.321Z,-6.44
2022-12-18T02:16:58.713Z,-6.39
2022-12-18T02:20:25.867Z,-6.31
2022-12-18T02:23:47.183Z,-6.26
2022-12-18T02:26:52.703Z,-6.24
2022-12-18T02:29:59.164Z,-6.24
2022-12-18T02:33:05.033Z,-6.22
2022-12-18T02:36:11.965Z,-6.23
2022-12-18T02:39:17.574Z,-6.23
2022-12-18T02:42:20.824Z,-6.19
2022-12-18T02:45:23.817Z,-6.11
2022-12-18T02:48:33.877Z,-6.04
2022-12-18T02:52:02.629Z,-6.00
2022-12-18T02:55:20.283Z,-5.99
2022-12-18T02:58:26.061Z,-6.00
2022-12-18T03:01:44.275Z,-5.98
2022-12-18T03:05:19.419Z,-5.93
2022-12-18T03:08:31.220Z,-5.95
2022-12-18T03:11:57.964Z,-5.96
2022-12-18T03:15:17.676Z,-5.97
2022-12-18T03:18:30.734Z,-5.95
2022-12-18T03:21:40.007Z,-5.97
2022-12-18T03:24:43.889Z,-5.97
2022-12-18T03:27:52.356Z,-5.94
2022-12-18T03:31:00.254Z,-5.87
2022-12-18T03:34:10.491Z,-5.84
2022-12-18T03:37:13.434Z,-5.87
2022-12-18T03:40:16.651Z,-5.88
2022-12-18T03:43:57.243Z,-5.88
2022-12-18T03:47:09.142Z,-5.90
2022-12-18T03:50:21.303Z,-5.93
2022-12-18T03:53:32.952Z,-5.97
2022-12-18T03:56:43.276Z,-5.99
2022-12-18T03:59:50.476Z,-6.01
2022-12-18T04:02:56.388Z,-6.00
2022-12-18T04:06:01.972Z,-5.95
2022-12-18T04:09:06.002Z,-5.93
2022-12-18T04:12:09.958Z,-5.89
2022-12-18T04:15:14.072Z,-5.84
2022-12-18T04:18:17.207Z,-5.82
2022-12-18T04:21:20.488Z,-5.84
2022-12-18T04:24:23.360Z,-5.90
2022-12-18T04:27:26.186Z,-5.97
2022-12-18T04:30:29.035Z,-6.00
2022-12-18T04:33:31.928Z,-6.03
2022-12-18T04:36:34.792Z,-6.07
2022-12-18T04:39:37.791Z,-6.09
2022-12-18T04:42:41.691Z,-6.09
2022-12-18T04:45:44.584Z,-6.08
2022-12-18T04:48:48.119Z,-6.07
2022-12-18T04:51:50.945Z,-6.05
2022-12-18T04:54:53.869Z,-6.03
2022-12-18T04:57:56.696Z,-6.03
2022-12-18T05:00:59.517Z,-6.06
2022-12-18T05:04:03.281Z,-6.02
2022-12-18T05:07:06.099Z,-5.97
2022-12-18T05:10:09.508Z,-5.95
2022-12-18T05:13:14.044Z,-5.93
2022-12-18T05:16:17.162Z,-5.95
2022-12-18T05:19:20.175Z,-5.99
2022-12-18T05:22:23.016Z,-5.98
2022-12-18T05:25:25.968Z,-5.94
2022-12-18T05:28:31.171Z,-5.95
2022-12-18T05:31:39.495Z,-5.97
2022-12-18T05:34:42.775Z,-5.97
2022-12-18T05:37:45.790Z,-5.95
2022-12-18T05:40:49.757Z,-5.93
2022-12-18T05:43:52.543Z,-5.92
2022-12-18T05:46:55.454Z,-5.90
2022-12-18T05:49:58.414Z,-5.90
2022-12-18T05:53:01.362Z,-5.94
2022-12-18T05:56:06.147Z,-5.99
2022-12-18T05:59:08.890Z,-6.07
2022-12-18T06:02:11.864Z,-6.15
2022-12-18T06:05:15.166Z,-6.19
2022-12-18T06:08:18.231Z,-6.22
2022-12-18T06:11:24.633Z,-6.18
2022-12-18T06:14:28.847Z,-6.14
2022-12-18T06:17:33.190Z,-6.13
2022-12-18T06:20:37.650Z,-6.12
2022-12-18T06:23:40.932Z,-6.06
2022-12-18T06:26:44.095Z,-6.06
2022-12-18T06:29:47.051Z,-6.13
2022-12-18T06:32:56.311Z,-6.18
2022-12-18T06:36:13.514Z,-6.20
2022-12-18T06:39:16.314Z,-6.23
2022-12-18T06:42:19.355Z,-6.21
2022-12-18T06:45:22.460Z,-6.18
2022-12-18T06:48:25.440Z,-6.11
2022-12-18T06:51:28.320Z,-6.04
2022-12-18T06:54:31.139Z,-5.99
2022-12-18T06:57:33.937Z,-5.95
2022-12-18T07:00:36.922Z,-5.93
2022-12-18T07:03:41.763Z,-5.98
2022-12-18T07:06:44.873Z,-5.99
2022-12-18T07:09:48.049Z,-5.97
2022-12-18T07:12:50.899Z,-5.99
2022-12-18T07:15:53.891Z,-5.96
2022-12-18T07:18:57.302Z,-5.92
2022-12-18T07:22:00.144Z,-5.87
2022-12-18T07:25:03.150Z,-5.87
2022-12-18T07:28:06.044Z,-5.85
2022-12-18T07:31:13.091Z,-5.84
2022-12-18T07:34:16.375Z,-5.84
2022-12-18T07:37:19.327Z,-5.72
2022-12-18T07:40:22.161Z,-5.64
2022-12-18T07:43:25.006Z,-5.59
2022-12-18T07:46:27.777Z,-5.49
2022-12-18T07:49:30.630Z,-5.40
2022-12-18T07:52:33.476Z,-5.31
2022-12-18T07:55:59.931Z,-5.20
2022-12-18T07:59:00.719Z,-5.08
2022-12-18T08:02:04.172Z,-5.02
2022-12-18T08:05:07.286Z,-4.92
2022-12-18T08:08:10.272Z,-4.80
2022-12-18T08:11:13.255Z,-4.72
2022-12-18T08:14:16.191Z,-4.62
2022-12-18T08:17:20.590Z,-4.46
2022-12-18T08:20:23.412Z,-4.28
2022-12-18T08:23:28.722Z,-4.09
2022-12-18T08:26:32.401Z,-3.97
2022-12-18T08:29:35.387Z,-3.83
2022-12-18T08:32:38.195Z,-3.71
2022-12-18T08:35:45.826Z,-3.56
2022-12-18T08:38:49.006Z,-3.37
2022-12-18T08:42:10.608Z,-3.22
2022-12-18T08:45:13.540Z,-3.12
2022-12-18T08:48:21.865Z,-3.01
2022-12-18T08:51:25.219Z,-2.83
2022-12-18T08:54:28.125Z,-2.78
2022-12-18T08:57:31.008Z,-2.97
2022-12-18T09:00:33.781Z,-3.06
2022-12-18T09:03:36.697Z,-3.00
2022-12-18T09:06:39.577Z,-2.90
2022-12-18T09:09:42.455Z,-2.65
2022-12-18T09:12:45.257Z,-2.43
2022-12-18T09:15:53.088Z,-2.32
2022-12-18T09:19:00.619Z,-2.28
2022-12-18T09:22:03.448Z,-2.46
2022-12-18T09:25:09.016Z,-2.70
2022-12-18T09:28:20.275Z,-2.88
2022-12-18T09:31:25.422Z,-3.16
2022-12-18T09:34:28.321Z,-3.31
2022-12-18T09:37:31.134Z,-3.35
2022-12-18T09:40:40.952Z,-3.34
2022-12-18T09:43:58.556Z,-3.28
2022-12-18T09:47:17.493Z,-3.21
2022-12-18T09:50:26.566Z,-3.11
2022-12-18T09:53:34.546Z,-3.07
2022-12-18T09:56:41.962Z,-3.02
2022-12-18T09:59:50.997Z,-2.96
2022-12-18T10:03:02.629Z,-3.03
2022-12-18T10:06:16.479Z,-3.09
2022-12-18T10:09:19.228Z,-3.09
2022-12-18T10:12:36.135Z,-3.18
2022-12-18T10:15:51.921Z,-3.20
2022-12-18T10:19:19.606Z,-3.32
2022-12-18T10:22:44.181Z,-3.36
2022-12-18T10:25:56.673Z,-3.35
2022-12-18T10:29:05.295Z,-3.35
2022-12-18T10:32:15.343Z,-3.35
2022-12-18T10:35:25.276Z,-3.27
2022-12-18T10:38:31.448Z,-3.14
2022-12-18T10:41:34.555Z,-3.03
2022-12-18T10:44:37.502Z,-3.00
2022-12-18T10:47:49.504Z,-2.97
2022-12-18T10:54:23.595Z,-2.99
2022-12-18T10:57:37.870Z,-3.06
2022-12-18T11:00:40.761Z,-3.08
2022-12-18T11:03:46.052Z,-3.06
2022-12-18T11:07:07.201Z,-3.03
2022-12-18T11:10:19.131Z,-3.06
2022-12-18T11:13:25.041Z,-3.17
2022-12-18T11:16:30.097Z,-3.26
2022-12-18T11:19:38.296Z,-3.39
2022-12-18T11:22:41.262Z,-3.49
2022-12-18T11:25:53.596Z,-3.58
2022-12-18T11:29:12.038Z,-3.63
2022-12-18T11:32:46.218Z,-3.65
2022-12-18T11:35:53.112Z,-3.66
2022-12-18T11:38:57.389Z,-3.74
2022-12-18T11:42:13.640Z,-3.81
2022-12-18T11:45:28.014Z,-3.84
2022-12-18T11:48:37.826Z,-3.85
2022-12-18T11:51:57.385Z,-3.84
2022-12-18T11:55:09.722Z,-3.81
2022-12-18T11:58:22.563Z,-3.84
2022-12-18T12:01:52.201Z,-3.89
2022-12-18T12:05:15.205Z,-3.93
2022-12-18T12:08:24.289Z,-3.96
2022-12-18T12:11:44.702Z,-4.03
2022-12-18T12:15:04.504Z,-4.08
2022-12-18T12:18:31.260Z,-4.11
2022-12-18T12:21:40.484Z,-4.14
2022-12-18T12:24:49.578Z,-4.23
2022-12-18T12:28:04.017Z,-4.42
2022-12-18T12:31:06.888Z,-4.51
2022-12-18T12:34:57.872Z,-4.53
2022-12-18T12:38:17.141Z,-4.55
2022-12-18T12:41:46.826Z,-4.61
2022-12-18T12:44:56.460Z,-4.64
2022-12-18T12:48:02.719Z,-4.69
2022-12-18T12:51:14.157Z,-4.77
2022-12-18T12:54:20.978Z,-4.88
2022-12-18T12:57:28.041Z,-4.96
2022-12-18T13:00:50.779Z,-5.01
2022-12-18T13:03:58.524Z,-5.04
2022-12-18T13:07:16.761Z,-5.05
2022-12-18T13:10:23.837Z,-5.08
2022-12-18T13:13:50.576Z,-5.14
2022-12-18T13:17:23.087Z,-5.22
2022-12-18T13:20:35.373Z,-5.32
2022-12-18T13:23:42.181Z,-5.40
2022-12-18T13:26:45.486Z,-5.49
2022-12-18T13:29:48.687Z,-5.59
2022-12-18T13:33:19.131Z,-5.70
2022-12-18T13:36:29.864Z,-5.83
2022-12-18T13:39:35.925Z,-5.93
2022-12-18T13:43:01.263Z,-6.03
2022-12-18T13:46:06.879Z,-6.13
2022-12-18T13:49:22.657Z,-6.22
2022-12-18T13:52:38.398Z,-6.35
2022-12-18T13:55:47.806Z,-6.48
2022-12-18T13:59:17.428Z,-6.62
2022-12-18T14:02:29.930Z,-6.80
2022-12-18T14:05:39.509Z,-6.99
2022-12-18T14:08:47.721Z,-7.18
2022-12-18T14:11:52.185Z,-7.35
2022-12-18T14:14:55.491Z,-7.48
2022-12-18T14:18:17.326Z,-7.58
2022-12-18T14:21:33.493Z,-7.70
2022-12-18T14:24:36.567Z,-7.81
2022-12-18T14:27:44.903Z,-7.92
2022-12-18T14:30:47.955Z,-8.03
2022-12-18T14:33:51.473Z,-8.17
2022-12-18T14:36:56.359Z,-8.30
2022-12-18T14:40:10.151Z,-8.41
2022-12-18T14:43:14.774Z,-8.54
2022-12-18T14:46:31.437Z,-8.72
2022-12-18T14:49:35.910Z,-8.90
2022-12-18T14:52:39.827Z,-9.05
2022-12-18T14:55:48.517Z,-9.16
2022-12-18T14:58:55.361Z,-9.26
2022-12-18T15:01:58.418Z,-9.36
2022-12-18T15:05:12.627Z,-9.46
2022-12-18T15:08:38.024Z,-9.56
2022-12-18T15:11:40.944Z,-9.64
2022-12-18T15:14:43.808Z,-9.72
2022-12-18T15:17:46.636Z,-9.81
2022-12-18T15:20:56.964Z,-9.93
2022-12-18T15:23:59.867Z,-10.02
2022-12-18T15:27:03.136Z,-10.06
2022-12-18T15:30:09.083Z,-10.09
2022-12-18T15:33:27.813Z,-10.13
2022-12-18T15:36:31.447Z,-10.19
2022-12-18T15:39:34.477Z,-10.23
2022-12-18T15:42:56.091Z,-10.27
2022-12-18T15:45:59.064Z,-10.30
2022-12-18T15:49:03.853Z,-10.34
2022-12-18T15:52:07.238Z,-10.41
2022-12-18T15:55:34.001Z,-10.49
2022-12-18T15:58:36.857Z,-10.48
2022-12-18T16:01:42.713Z,-10.42
2022-12-18T16:04:46.933Z,-10.44
2022-12-18T16:07:49.872Z,-10.50
2022-12-18T16:10:52.837Z,-10.47
2022-12-18T16:13:55.675Z,-10.60
2022-12-18T16:17:01.491Z,-10.91
2022-12-18T16:20:04.599Z,-11.14
2022-12-18T16:23:07.907Z,-11.29
2022-12-18T16:26:10.743Z,-11.41
2022-12-18T16:29:13.555Z,-11.43
2022-12-18T16:32:21.378Z,-11.44
2022-12-18T16:35:27.310Z,-11.47
2022-12-18T16:38:30.154Z,-11.56
2022-12-18T16:41:33.724Z,-11.66
2022-12-18T16:44:36.842Z,-11.71
2022-12-18T16:47:40.623Z,-11.73
2022-12-18T16:50:43.555Z,-11.75
2022-12-18T16:53:46.424Z,-11.78
2022-12-18T16:56:51.981Z,-11.85
2022-12-18T16:59:56.804Z,-12.00
2022-12-18T17:03:02.973Z,-12.14
2022-12-18T17:06:06.944Z,-12.27
2022-12-18T17:09:16.902Z,-12.40
2022-12-18T17:12:20.045Z,-12.49
2022-12-18T17:15:22.902Z,-12.53
2022-12-18T17:18:27.113Z,-12.55
2022-12-18T17:21:30.388Z,-12.55
2022-12-18T17:24:35.299Z,-12.52
2022-12-18T17:27:38.739Z,-12.42
2022-12-18T17:30:41.675Z,-12.33
2022-12-18T17:33:44.803Z,-12.29
2022-12-18T17:36:47.715Z,-12.24
2022-12-18T17:39:50.552Z,-12.18
2022-12-18T17:42:53.791Z,-12.17
2022-12-18T17:45:57.304Z,-12.20
2022-12-18T17:49:02.599Z,-12.24
2022-12-18T17:52:05.577Z,-12.28
2022-12-18T17:55:09.139Z,-12.32
2022-12-18T17:58:11.953Z,-12.35
2022-12-18T18:01:16.777Z,-12.36
2022-12-18T18:04:19.747Z,-12.35
2022-12-18T18:07:22.851Z,-12.34
2022-12-18T18:10:25.874Z,-12.35
2022-12-18T18:13:47.416Z,-12.36
2022-12-18T18:16:52.260Z,-12.32
2022-12-18T18:19:55.150Z,-12.29
2022-12-18T18:22:58.089Z,-12.25
2022-12-18T18:26:05.572Z,-12.19
2022-12-18T18:29:12.348Z,-12.18
2022-12-18T18:32:15.526Z,-12.13
2022-12-18T18:35:45.147Z,-12.06
2022-12-18T18:38:45.369Z,-11.93
2022-12-18T18:41:51.839Z,-11.85
2022-12-18T18:44:54.596Z,-11.81
2022-12-18T18:47:58.970Z,-11.80
2022-12-18T18:51:14.686Z,-11.80
2022-12-18T18:54:25.652Z,-11.75
2022-12-18T18:57:30.436Z,-11.72
2022-12-18T19:00:33.818Z,-11.68
2022-12-18T19:03:38.090Z,-11.66
2022-12-18T19:06:41.678Z,-11.64
2022-12-18T19:09:45.466Z,-11.62
2022-12-18T19:13:07.221Z,-11.61
2022-12-18T19:16:10.349Z,-11.62
2022-12-18T19:19:13.932Z,-11.61
2022-12-18T19:22:16.974Z,-11.60
2022-12-18T19:25:19.757Z,-11.59
2022-12-18T19:28:26.359Z,-11.58
2022-12-18T19:31:34.746Z,-11.56
2022-12-18T19:34:39.079Z,-11.53
2022-12-18T19:37:42.140Z,-11.51
2022-12-18T19:40:45.263Z,-11.49
2022-12-18T19:43:49.237Z,-11.42
2022-12-18T19:46:52.230Z,-11.33
2022-12-18T19:49:55.175Z,-11.26
2022-12-18T19:52:58.536Z,-11.25
2022-12-18T19:56:12.893Z,-11.30
2022-12-18T19:59:15.865Z,-11.38
2022-12-18T20:02:20.231Z,-11.42
2022-12-18T20:05:25.433Z,-11.43
2022-12-18T20:08:28.196Z,-11.46
2022-12-18T20:11:33.640Z,-11.51
2022-12-18T20:14:41.521Z,-11.57
2022-12-18T20:17:44.311Z,-11.63
2022-12-18T20:20:48.121Z,-11.70
2022-12-18T20:23:54.640Z,-11.78
2022-12-18T20:26:57.616Z,-11.83
2022-12-18T20:30:00.784Z,-11.89
2022-12-18T20:33:03.910Z,-11.94
2022-12-18T20:36:12.495Z,-12.00
2022-12-18T20:39:16.544Z,-12.04
2022-12-18T20:42:19.634Z,-12.08
2022-12-18T20:45:22.621Z,-12.05
2022-12-18T20:48:26.822Z,-11.98
2022-12-18T20:51:30.717Z,-11.89
2022-12-18T20:54:33.867Z,-11.82
2022-12-18T20:57:36.727Z,-11.77
2022-12-18T21:00:41.238Z,-11.72
2022-12-18T21:03:46.476Z,-11.69
2022-12-18T21:06:54.262Z,-11.61
2022-12-18T21:10:05.691Z,-11.40
2022-12-18T21:13:08.717Z,-11.24
2022-12-18T21:16:12.985Z,-11.12
2022-12-18T21:19:20.430Z,-11.12
2022-12-18T21:22:23.916Z,-11.15
2022-12-18T21:25:27.543Z,-11.17
2022-12-18T21:28:30.341Z,-11.16
2022-12-18T21:31:38.230Z,-11.12
2022-12-18T21:34:46.008Z,-11.04
2022-12-18T21:37:50.841Z,-10.91
2022-12-18T21:40:53.726Z,-10.79
2022-12-18T21:44:07.969Z,-10.67
2022-12-18T21:47:21.570Z,-10.57
2022-12-18T21:50:26.184Z,-10.49
2022-12-18T21:53:29.002Z,-10.40
2022-12-18T21:57:01.037Z,-10.36
2022-12-18T22:00:05.830Z,-10.32
2022-12-18T22:03:18.216Z,-10.28
2022-12-18T22:06:22.529Z,-10.22
2022-12-18T22:09:26.065Z,-10.21
2022-12-18T22:12:43.463Z,-10.22
2022-12-18T22:15:47.555Z,-10.19
2022-12-18T22:18:50.435Z,-10.10
2022-12-18T22:21:54.505Z,-10.00
2022-12-18T22:24:57.440Z,-9.94
2022-12-18T22:28:18.795Z,-9.90
2022-12-18T22:31:21.636Z,-9.88
2022-12-18T22:34:24.520Z,-9.87
2022-12-18T22:37:27.491Z,-9.82
2022-12-18T22:40:30.277Z,-9.72
2022-12-18T22:43:33.511Z,-9.60
2022-12-18T22:46:44.056Z,-9.51
2022-12-18T22:49:48.202Z,-9.42
2022-12-18T22:52:50.993Z,-9.35
2022-12-18T22:56:00.760Z,-9.36
2022-12-18T22:59:04.057Z,-9.35
2022-12-18T23:02:06.974Z,-9.37
2022-12-18T23:05:10.031Z,-9.40
2022-12-18T23:08:12.829Z,-9.39
2022-12-18T23:11:16.768Z,-9.41
2022-12-18T23:14:21.840Z,-9.40
2022-12-18T23:17:25.700Z,-9.37
2022-12-18T23:20:28.863Z,-9.38
2022-12-18T23:23:34.119Z,-9.43
2022-12-18T23:26:37.162Z,-9.45
2022-12-18T23:29:40.658Z,-9.47
2022-12-18T23:32:43.554Z,-9.51
2022-12-18T23:35:46.395Z,-9.52
2022-12-18T23:38:54.572Z,-9.58
2022-12-18T23:41:58.711Z,-9.64
2022-12-18T23:45:03.925Z,-9.75
2022-12-18T23:48:12.331Z,-9.82
2022-12-18T23:51:16.712Z,-9.89
2022-12-18T23:54:30.876Z,-9.90
2022-12-18T23:57:36.507Z,-9.88
